ADDS METAR Data INFO
IDs: Format: Raw Decoded Include TAF

Data at: 2053 UTC 26 May 2017

KUTS 261953Z AUTO 18011G18KT 10SM BKN037 32/22 A2986 RMK AO2 SLP106 T03170217
KUTS 261853Z AUTO 18014G21KT 10SM BKN035 31/22 A2988 RMK AO2 SLP113 T03110217
KUTS 261753Z AUTO 18010G18KT 10SM FEW024 SCT029 OVC037 29/22 A2990 RMK AO2 SLP118 T02940222 10300 20239 58002
KUTS 261703Z AUTO 18012G19KT 10SM SCT024 OVC035 28/22 A2991 RMK AO2 T02830222
KUTS 261653Z AUTO 18010KT 10SM BKN022 BKN029 OVC036 28/22 A2991 RMK AO2 SLP122 T02780217
KUTS 261553Z AUTO 19012G18KT 10SM BKN019 OVC025 27/22 A2990 RMK AO2 SLP119 T02720217
KUTS 261453Z AUTO 19010KT 10SM BKN016 OVC034 26/22 A2990 RMK AO2 SLP120 T02610217 53009
KUTS 261353Z AUTO 18008KT 10SM BKN014 OVC034 25/21 A2989 RMK AO2 SLP115 T02500211
KUTS 261340Z AUTO 18007KT 10SM BKN013 OVC034 25/21 A2988 RMK AO2 T02500211
KUTS 261253Z AUTO 18009KT 10SM FEW016 OVC030 24/21 A2988 RMK AO2 SLP111 T02440211
KUTS 261248Z AUTO 19007KT 10SM FEW018 OVC030 24/21 A2988 RMK AO2
KUTS 261153Z AUTO VRB05KT 10SM OVC026 24/21 A2985 RMK AO2 SLP102 T02390206 10239 20228 53012
KUTS 261053Z AUTO 18007KT 10SM OVC025 24/21 A2984 RMK AO2 SLP097 T02390206
KUTS 260953Z AUTO 18007KT 10SM OVC021 23/20 A2982 RMK AO2 SLP093 T02330200
KUTS 260853Z AUTO 19010KT 10SM OVC016 23/19 A2981 RMK AO2 SLP090 T02330194 53010
KUTS 260807Z AUTO 19007KT 10SM BKN017 23/19 A2980 RMK AO2 T02280189
KUTS 260753Z AUTO 18010G16KT 10SM FEW017 23/19 A2979 RMK AO2 SLP083 T02280189
KUTS 260653Z AUTO 18009KT 10SM CLR 23/18 A2979 RMK AO2 SLP081 T02280183
KUTS 260553Z AUTO 19007KT 10SM CLR 23/17 A2978 RMK AO2 SLP080 T02280172 10306 20228 403220167 51012
KUTS 260453Z AUTO 18007KT 10SM CLR 24/17 A2978 RMK AO2 SLP079 T02390167
KUTS 260353Z AUTO 17008G16KT 10SM CLR 24/16 A2977 RMK AO2 SLP077 T02440156
KUTS 260253Z AUTO 17007KT 10SM CLR 26/13 A2975 RMK AO2 SLP069 T02560128 53010
KUTS 260153Z AUTO 17009G18KT 10SM CLR 28/10 A2972 RMK AO2 SLP061 T02780100
KUTS 260053Z AUTO 18011KT 10SM CLR 28/12 A2972 RMK AO2 SLP060 T02830117
KUTS 252353Z AUTO 18014G22KT 10SM CLR 31/13 A2972 RMK AO2 SLP059 T03060128 10322 20283 58012
KUTS 252253Z AUTO 19012G18KT 10SM CLR 32/13 A2973 RMK AO2 SLP063 T03170133
KUTS 252153Z AUTO 18013G23KT 10SM CLR 32/14 A2975 RMK AO2 SLP069 T03220139
KUTS 252053Z AUTO 22014G20KT 10SM CLR 32/14 A2976 RMK AO2 SLP072 T03170139 56014
KUTS 251953Z AUTO 19014G22KT 10SM CLR 32/14 A2977 RMK AO2 SLP075 T03170144
KUTS 251853Z AUTO 18013G19KT 10SM CLR 30/15 A2978 RMK AO2 SLP079 T03000150
KUTS 251753Z AUTO 20012G22KT 10SM CLR 30/15 A2980 RMK AO2 SLP086 T03000150 10300 20178 58002
KUTS 251653Z AUTO 17013G22KT 140V200 10SM CLR 28/14 A2980 RMK AO2 SLP086 T02830144
KUTS 251553Z AUTO 18014G19KT 10SM CLR 27/15 A2981 RMK AO2 PK WND 18026/1536 SLP088 T02720150
KUTS 251453Z AUTO 19012G21KT 10SM CLR 25/16 A2981 RMK AO2 SLP089 T02500156 50006
KUTS 251353Z AUTO 20010G16KT 10SM CLR 23/16 A2981 RMK AO2 SLP091 T02280156
KUTS 251253Z AUTO 19009KT 10SM CLR 21/16 A2980 RMK AO2 SLP087 T02060156
KUTS 251153Z AUTO 17005KT 10SM CLR 18/13 A2979 RMK AO2 SLP082 T01780133 10189 20167 53015
KUTS 251053Z AUTO 18006KT 10SM CLR 17/12 A2977 RMK AO2 SLP076 T01720117
KUTS 250953Z AUTO 17005KT 10SM CLR 18/10 A2975 RMK AO2 SLP071 T01830100


Page loaded:  20:53 UTC  |   01:53 PM Pacific  |   02:53 PM Mountain  |   03:53 PM Central  |   04:53 PM Eastern

 

ADVISORIES

FORECASTS

FORECASTS

OBSERVATIONS

USER TOOLS

ABOUT US